createdAt,value
2022-09-13T05:02:56.101Z,5.30
2022-09-13T05:08:16.839Z,7.03
2022-09-13T05:13:37.880Z,6.07
2022-09-13T05:18:59.410Z,4.05
2022-09-13T05:24:20.447Z,5.50
2022-09-13T05:35:02.071Z,5.22
2022-09-13T05:40:22.930Z,4.80
2022-09-13T05:45:43.591Z,8.57
2022-09-13T05:56:30.251Z,5.30
2022-09-13T06:01:51.388Z,9.05
2022-09-13T06:07:12.445Z,5.80
2022-09-13T06:12:33.287Z,8.50
2022-09-13T06:23:15.332Z,6.15
2022-09-13T06:28:37.739Z,7.05
2022-09-13T06:34:00.941Z,5.80
2022-09-13T06:39:21.640Z,7.78
2022-09-13T06:50:02.850Z,7.57
2022-09-13T07:00:44.507Z,6.88
2022-09-13T07:06:22.209Z,7.13
2022-09-13T07:11:45.238Z,6.97
2022-09-13T07:17:06.350Z,7.57
2022-09-13T07:22:27.958Z,8.90
2022-09-13T07:27:48.800Z,15.05
2022-09-13T07:38:30.437Z,7.03
2022-09-13T07:43:52.396Z,9.15
2022-09-13T07:49:15.052Z,8.85
2022-09-13T07:54:38.083Z,7.68
2022-09-13T07:59:59.062Z,9.55
2022-09-13T08:05:19.760Z,8.73
2022-09-13T08:10:40.639Z,11.32
2022-09-13T08:21:25.341Z,7.97
2022-09-13T08:26:46.443Z,7.72
2022-09-13T08:32:07.231Z,9.18
2022-09-13T08:37:28.051Z,6.47
2022-09-13T08:43:08.197Z,6.70
2022-09-13T08:48:39.942Z,8.67
2022-09-13T08:54:01.051Z,8.57
2022-09-13T08:59:46.349Z,8.95
2022-09-13T09:05:29.173Z,8.43
2022-09-13T09:10:53.274Z,9.10
2022-09-13T09:16:14.197Z,7.80
2022-09-13T09:21:35.022Z,8.25
2022-09-13T09:26:58.186Z,8.30
2022-09-13T09:32:41.152Z,7.22
2022-09-13T09:38:37.256Z,7.03
2022-09-13T09:44:21.235Z,7.93
2022-09-13T09:50:10.120Z,10.57
2022-09-13T09:55:32.298Z,7.25
2022-09-13T10:00:56.008Z,7.93
2022-09-13T10:06:21.791Z,6.25
2022-09-13T10:11:59.149Z,7.15
2022-09-13T10:17:28.358Z,8.30
2022-09-13T10:23:13.645Z,5.53
2022-09-13T10:28:44.023Z,7.43
2022-09-13T10:34:13.707Z,10.90
2022-09-13T10:39:36.755Z,6.22
2022-09-13T10:45:22.278Z,7.05
2022-09-13T10:51:21.291Z,8.98
2022-09-13T10:56:43.892Z,7.47
2022-09-13T11:02:29.348Z,9.57
2022-09-13T11:08:02.054Z,9.70
2022-09-13T11:13:46.013Z,8.57
2022-09-13T11:19:27.074Z,10.32
2022-09-13T11:25:03.240Z,11.85
2022-09-13T11:30:29.842Z,10.25
2022-09-13T11:36:21.843Z,9.57
2022-09-13T11:41:53.462Z,9.63
2022-09-13T11:47:17.161Z,9.20
2022-09-13T11:53:00.136Z,9.85
2022-09-13T11:58:37.940Z,8.35
2022-09-13T12:04:13.930Z,9.70
2022-09-13T12:09:50.019Z,12.77
2022-09-13T12:15:30.392Z,13.55
2022-09-13T12:21:10.287Z,12.30
2022-09-13T12:26:39.789Z,10.48
2022-09-13T12:32:04.943Z,11.15
2022-09-13T12:37:29.003Z,10.13
2022-09-13T12:43:02.099Z,9.93
2022-09-13T12:48:41.959Z,10.77
2022-09-13T12:54:36.963Z,10.73
2022-09-13T13:00:20.750Z,8.57
2022-09-13T13:05:43.505Z,7.88
2022-09-13T13:11:06.692Z,8.68
2022-09-13T13:16:37.808Z,8.63
2022-09-13T13:22:35.947Z,8.35
2022-09-13T13:27:58.571Z,11.60
2022-09-13T13:33:23.375Z,9.50
2022-09-13T13:38:49.232Z,7.75
2022-09-13T13:44:31.742Z,8.05
2022-09-13T13:50:12.758Z,5.80
2022-09-13T13:55:33.920Z,7.30
2022-09-13T14:00:55.894Z,5.95
2022-09-13T14:06:28.337Z,7.00
2022-09-13T14:12:00.249Z,4.88
2022-09-13T14:17:29.455Z,6.28
2022-09-13T14:22:50.296Z,5.50
2022-09-13T14:28:20.019Z,10.60
2022-09-13T14:33:41.244Z,6.47
2022-09-13T14:39:02.311Z,4.30
2022-09-13T14:44:28.910Z,4.88
2022-09-13T14:49:58.721Z,5.57
2022-09-13T14:55:25.767Z,6.63
2022-09-13T15:00:55.896Z,5.75
2022-09-13T15:06:25.690Z,5.57
2022-09-13T15:11:53.307Z,3.50
2022-09-13T15:17:14.617Z,6.25
2022-09-13T15:22:35.725Z,4.80
2022-09-13T15:27:57.671Z,3.30
2022-09-13T15:33:30.570Z,5.65
2022-09-13T15:39:16.944Z,5.93
2022-09-13T15:44:41.959Z,5.90
2022-09-13T15:50:03.448Z,5.03
2022-09-13T15:55:25.962Z,5.53
2022-09-13T16:00:47.138Z,3.20
2022-09-13T16:06:09.579Z,4.47
2022-09-13T16:11:30.503Z,3.97
2022-09-13T16:16:52.112Z,3.78
2022-09-13T16:22:13.060Z,3.40
2022-09-13T16:27:34.313Z,8.55
2022-09-13T16:32:55.396Z,7.63
2022-09-13T16:38:16.230Z,4.88
2022-09-13T16:43:37.157Z,7.03
2022-09-13T16:48:58.092Z,4.22
2022-09-13T16:54:19.294Z,5.45
2022-09-13T16:59:41.403Z,7.65
2022-09-13T17:05:01.945Z,6.35
2022-09-13T17:10:22.899Z,4.22
2022-09-13T17:15:43.762Z,6.05
2022-09-13T17:21:04.662Z,2.75
2022-09-13T17:26:25.547Z,5.28
2022-09-13T17:31:46.878Z,3.38
2022-09-13T17:37:07.624Z,3.47
2022-09-13T17:42:28.390Z,5.07
2022-09-13T17:47:53.020Z,3.65
2022-09-13T17:53:13.787Z,3.38
2022-09-13T17:58:35.501Z,5.28
2022-09-13T18:03:56.360Z,7.22
2022-09-13T18:09:17.296Z,6.15
2022-09-13T18:14:39.030Z,8.55
2022-09-13T18:19:59.614Z,5.28
2022-09-13T18:25:23.505Z,4.18
2022-09-13T18:30:52.128Z,6.13
2022-09-13T18:36:15.944Z,4.50
2022-09-13T18:41:40.683Z,4.90
2022-09-13T18:47:02.947Z,5.40
2022-09-13T18:52:23.974Z,4.22
2022-09-13T18:57:44.603Z,6.38
2022-09-13T19:03:12.322Z,3.70
2022-09-13T19:08:33.614Z,4.75
2022-09-13T19:13:54.552Z,3.83
2022-09-13T19:19:16.025Z,5.95
2022-09-13T19:24:38.376Z,6.25
2022-09-13T19:29:59.312Z,4.53
2022-09-13T19:35:22.065Z,5.80
2022-09-13T19:40:43.197Z,6.05
2022-09-13T19:46:07.160Z,6.25
2022-09-13T19:51:30.730Z,7.13
2022-09-13T19:56:51.887Z,5.22
2022-09-13T20:02:13.867Z,6.10
2022-09-13T20:07:34.829Z,5.68
2022-09-13T20:12:55.997Z,5.45
2022-09-13T20:18:17.245Z,6.78
2022-09-13T20:23:39.781Z,6.63
2022-09-13T20:29:03.853Z,10.60
2022-09-13T20:34:25.076Z,4.97
2022-09-13T20:45:07.456Z,6.77
2022-09-13T20:50:28.961Z,4.43
2022-09-13T20:55:49.974Z,7.05
2022-09-13T21:01:14.249Z,7.07
2022-09-13T21:07:02.645Z,5.05
2022-09-13T21:12:24.447Z,5.43
2022-09-13T21:17:45.205Z,6.10
2022-09-13T21:23:06.277Z,5.05
2022-09-13T21:28:27.121Z,6.90
2022-09-13T21:33:47.906Z,6.35
2022-09-13T21:39:09.171Z,6.13
2022-09-13T21:44:30.967Z,8.13
